Hartwell, Missouri
Current Conditions -  °F | °C
As of 6:15 AM on Saturday 25 Oct 2014 (Local Time) from KGLY Reporting Station
Haze Haze  
Wind Chill: 61°   Ceiling: Unl
Heat Index: 61°   Visibility: 4mi
Dew Point: 61°   Wind: 5mph
Humidity: 100%   Direction: 230°SW
Pressure: 30.04"   Gusts: NA
Location:  38.4247°N, 93.9558°W
Report Text: KGLY 251115Z AUTO 23004KT 4SM BR CLR 16/16 A3004 RMK AO2
Loading
Personal Weather Stations






























Interactive Weather Map
Tropical Storm Tracking
New forecast layout! Learn more

10-Day Weather Forecast

Advertisements
Track Severe Weather on mobile